OCN8HK LGMK-EDDM
Flight info
| Callsign | OCN8HK |
|---|---|
| Flight time | N/A |
| Altitude | 36000 |
| Route | VARIX UL995 KEA UN132 ROPOX UM749 SKP UL617 MAKED DCT SKJ DCT LONTA UL608 DOLEV DCT PODET DCT DIPSA DCT RASTA DCT REDBU Q112 NAPSA NAPSA4A |
| Aircraft | A320/M-SDE3FGHIRWY/LB1 |
Departure
| Time | 2026-04-28 13:20 |
|---|---|
| Airport | Mykonos Island National Airport (LGMK) |
Arrival
| Time | N/A |
|---|---|
| Airport | Munich Airport (EDDM) |
| Time | Latitude | Longitude | Altitude | Speed | Heading |
|---|---|---|---|---|---|
| 2026-04-28 12:44 | 37.43465 | 25.34662 | 405 ft | 0 kts | 251° |
| 2026-04-28 13:11 | 37.43470 | 25.34680 | 407 ft | 3 kts | 249° |
| 2026-04-28 13:12 | 37.43478 | 25.34703 | 405 ft | 3 kts | 230° |
| 2026-04-28 13:12 | 37.43490 | 25.34716 | 408 ft | 3 kts | 178° |
| 2026-04-28 13:12 | 37.43496 | 25.34715 | 408 ft | 0 kts | 161° |
| 2026-04-28 13:15 | 37.43495 | 25.34716 | 408 ft | 0 kts | 161° |
| 2026-04-28 13:16 | 37.43488 | 25.34719 | 401 ft | 3 kts | 162° |
| 2026-04-28 13:16 | 37.43468 | 25.34727 | 408 ft | 4 kts | 161° |
| 2026-04-28 13:16 | 37.43423 | 25.34760 | 408 ft | 11 kts | 122° |
| 2026-04-28 13:16 | 37.43380 | 25.34868 | 411 ft | 16 kts | 126° |
| 2026-04-28 13:17 | 37.43261 | 25.34934 | 413 ft | 21 kts | 161° |
| 2026-04-28 13:17 | 37.43098 | 25.35006 | 413 ft | 26 kts | 160° |
| 2026-04-28 13:17 | 37.42938 | 25.35078 | 413 ft | 24 kts | 160° |
| 2026-04-28 13:17 | 37.42811 | 25.35135 | 409 ft | 15 kts | 159° |
| 2026-04-28 13:18 | 37.42730 | 25.35192 | 409 ft | 12 kts | 192° |
| 2026-04-28 13:18 | 37.42744 | 25.35135 | 410 ft | 8 kts | 354° |
| 2026-04-28 13:18 | 37.42787 | 25.35143 | 411 ft | 2 kts | 341° |
| 2026-04-28 13:18 | 37.42794 | 25.35140 | 411 ft | 0 kts | 341° |
| 2026-04-28 13:19 | 37.42954 | 25.35070 | 414 ft | 60 kts | 340° |
| 2026-04-28 13:20 | 37.43563 | 25.34801 | 411 ft | 122 kts | 341° |
| 2026-04-28 13:20 | 37.44453 | 25.34407 | 793 ft | 141 kts | 342° |
| 2026-04-28 13:20 | 37.45400 | 25.33987 | 1436 ft | 149 kts | 343° |
| 2026-04-28 13:20 | 37.46403 | 25.33483 | 1856 ft | 166 kts | 331° |
| 2026-04-28 13:21 | 37.47225 | 25.32372 | 2306 ft | 184 kts | 298° |
| 2026-04-28 13:21 | 37.47467 | 25.30731 | 2850 ft | 195 kts | 283° |
| 2026-04-28 13:21 | 37.47608 | 25.28994 | 3249 ft | 206 kts | 281° |
| 2026-04-28 13:21 | 37.47324 | 25.27133 | 3526 ft | 235 kts | 249° |
| 2026-04-28 13:22 | 37.46524 | 25.25239 | 3832 ft | 257 kts | 245° |
| 2026-04-28 13:22 | 37.45581 | 25.23203 | 4240 ft | 278 kts | 242° |
| 2026-04-28 13:22 | 37.44560 | 25.21095 | 5051 ft | 282 kts | 242° |
| 2026-04-28 13:22 | 37.43537 | 25.18978 | 5923 ft | 284 kts | 243° |
| 2026-04-28 13:23 | 37.42521 | 25.16837 | 6759 ft | 286 kts | 243° |
| 2026-04-28 13:23 | 37.41511 | 25.14671 | 7566 ft | 288 kts | 243° |
| 2026-04-28 13:23 | 37.40505 | 25.12484 | 8395 ft | 289 kts | 243° |
| 2026-04-28 13:23 | 37.39497 | 25.10277 | 9181 ft | 293 kts | 244° |
| 2026-04-28 13:24 | 37.38484 | 25.08044 | 9975 ft | 295 kts | 244° |
| 2026-04-28 13:24 | 37.37544 | 25.05745 | 10674 ft | 296 kts | 252° |
| 2026-04-28 13:24 | 37.37127 | 25.03180 | 10990 ft | 309 kts | 274° |
| 2026-04-28 13:24 | 37.37573 | 25.00493 | 11153 ft | 324 kts | 297° |
| 2026-04-28 13:25 | 37.38953 | 24.98194 | 11359 ft | 338 kts | 322° |
| 2026-04-28 13:25 | 37.40928 | 24.96617 | 11926 ft | 342 kts | 330° |
| 2026-04-28 13:25 | 37.43024 | 24.95079 | 12572 ft | 347 kts | 330° |
| 2026-04-28 13:25 | 37.45097 | 24.93556 | 13261 ft | 350 kts | 330° |
| 2026-04-28 13:26 | 37.47202 | 24.92002 | 13964 ft | 351 kts | 330° |
| 2026-04-28 13:26 | 37.49317 | 24.90430 | 14524 ft | 356 kts | 329° |
| 2026-04-28 13:26 | 37.51458 | 24.88836 | 15104 ft | 359 kts | 329° |
| 2026-04-28 13:26 | 37.53616 | 24.87228 | 15691 ft | 362 kts | 329° |
| 2026-04-28 13:27 | 37.55802 | 24.85598 | 16194 ft | 367 kts | 329° |
| 2026-04-28 13:27 | 37.58004 | 24.83957 | 16771 ft | 369 kts | 329° |
| 2026-04-28 13:27 | 37.60223 | 24.82306 | 17352 ft | 371 kts | 329° |
| 2026-04-28 13:27 | 37.62459 | 24.80642 | 17870 ft | 375 kts | 329° |
| 2026-04-28 13:28 | 37.64685 | 24.78984 | 18417 ft | 376 kts | 329° |
| 2026-04-28 13:28 | 37.66945 | 24.77296 | 18870 ft | 379 kts | 329° |
| 2026-04-28 13:28 | 37.69225 | 24.75593 | 19319 ft | 382 kts | 329° |
| 2026-04-28 13:28 | 37.71520 | 24.73877 | 19793 ft | 384 kts | 329° |
| 2026-04-28 13:29 | 37.73826 | 24.72149 | 20246 ft | 387 kts | 329° |
| 2026-04-28 13:29 | 37.76149 | 24.70408 | 20686 ft | 389 kts | 329° |
| 2026-04-28 13:29 | 37.78490 | 24.68652 | 21137 ft | 392 kts | 329° |
| 2026-04-28 13:29 | 37.80842 | 24.66885 | 21599 ft | 393 kts | 330° |
| 2026-04-28 13:30 | 37.83198 | 24.65114 | 22050 ft | 395 kts | 330° |
| 2026-04-28 13:30 | 37.85564 | 24.63335 | 22547 ft | 395 kts | 330° |
| 2026-04-28 13:30 | 37.87940 | 24.61549 | 22955 ft | 398 kts | 330° |
| 2026-04-28 13:30 | 37.90335 | 24.59749 | 23339 ft | 401 kts | 330° |
| 2026-04-28 13:31 | 37.95131 | 24.56143 | 24052 ft | 406 kts | 330° |
| 2026-04-28 13:31 | 37.97574 | 24.54305 | 24395 ft | 408 kts | 330° |
| 2026-04-28 13:31 | 38.00015 | 24.52465 | 24755 ft | 409 kts | 330° |
| 2026-04-28 13:32 | 38.02469 | 24.50611 | 25089 ft | 411 kts | 330° |
| 2026-04-28 13:32 | 38.04929 | 24.48753 | 25420 ft | 412 kts | 330° |
| 2026-04-28 13:32 | 38.07425 | 24.46937 | 25745 ft | 414 kts | 332° |
| 2026-04-28 13:32 | 38.09099 | 24.45762 | 25950 ft | 415 kts | 332° |
| 2026-04-28 13:33 | 38.11654 | 24.44012 | 26276 ft | 417 kts | 333° |
| 2026-04-28 13:33 | 38.14226 | 24.42270 | 26606 ft | 419 kts | 333° |
| 2026-04-28 13:33 | 38.17648 | 24.39945 | 27021 ft | 422 kts | 333° |
| 2026-04-28 13:33 | 38.19401 | 24.38746 | 27224 ft | 423 kts | 333° |
| 2026-04-28 13:34 | 38.21963 | 24.36984 | 27486 ft | 425 kts | 332° |
| 2026-04-28 13:34 | 38.24565 | 24.35186 | 27773 ft | 426 kts | 332° |
| 2026-04-28 13:34 | 38.27179 | 24.33377 | 28051 ft | 428 kts | 332° |
| 2026-04-28 13:34 | 38.29790 | 24.31566 | 28337 ft | 430 kts | 332° |
| 2026-04-28 13:35 | 38.32423 | 24.29735 | 28597 ft | 431 kts | 332° |
| 2026-04-28 13:35 | 38.35064 | 24.27897 | 28866 ft | 433 kts | 332° |
| 2026-04-28 13:35 | 38.37720 | 24.26043 | 29126 ft | 435 kts | 332° |
| 2026-04-28 13:35 | 38.40379 | 24.24184 | 29379 ft | 436 kts | 332° |
| 2026-04-28 13:36 | 38.43038 | 24.22321 | 29751 ft | 435 kts | 332° |
| 2026-04-28 13:36 | 38.45688 | 24.20465 | 30134 ft | 434 kts | 332° |
| 2026-04-28 13:36 | 38.48333 | 24.18618 | 30455 ft | 433 kts | 332° |
| 2026-04-28 13:36 | 38.50973 | 24.16780 | 30771 ft | 432 kts | 332° |
| 2026-04-28 13:37 | 38.53608 | 24.14948 | 31081 ft | 431 kts | 332° |
| 2026-04-28 13:37 | 38.56242 | 24.13109 | 31394 ft | 430 kts | 332° |
| 2026-04-28 13:37 | 38.58867 | 24.11273 | 31708 ft | 429 kts | 332° |
| 2026-04-28 13:37 | 38.61488 | 24.09439 | 32022 ft | 429 kts | 332° |
| 2026-04-28 13:38 | 38.64099 | 24.07607 | 32325 ft | 428 kts | 332° |
| 2026-04-28 13:38 | 38.66680 | 24.05790 | 32592 ft | 428 kts | 331° |
| 2026-04-28 13:38 | 38.69289 | 24.03953 | 32881 ft | 428 kts | 331° |
| 2026-04-28 13:38 | 38.71898 | 24.02117 | 33177 ft | 427 kts | 331° |
| 2026-04-28 13:39 | 38.74501 | 24.00283 | 33470 ft | 426 kts | 331° |
| 2026-04-28 13:39 | 38.77099 | 23.98454 | 33766 ft | 426 kts | 331° |
| 2026-04-28 13:39 | 38.79689 | 23.96631 | 34071 ft | 425 kts | 331° |
| 2026-04-28 13:39 | 38.82278 | 23.94808 | 34353 ft | 424 kts | 331° |
| 2026-04-28 13:40 | 38.84866 | 23.92980 | 34616 ft | 423 kts | 331° |
| 2026-04-28 13:40 | 38.87445 | 23.91154 | 34863 ft | 422 kts | 330° |
| 2026-04-28 13:40 | 38.90019 | 23.89329 | 35100 ft | 422 kts | 330° |
| 2026-04-28 13:40 | 38.92587 | 23.87508 | 35320 ft | 421 kts | 330° |
| 2026-04-28 13:41 | 38.95159 | 23.85686 | 35538 ft | 421 kts | 330° |
| 2026-04-28 13:41 | 38.97689 | 23.83894 | 35745 ft | 421 kts | 330° |
| 2026-04-28 13:41 | 39.00256 | 23.82071 | 35954 ft | 420 kts | 330° |
| 2026-04-28 13:41 | 39.02816 | 23.80250 | 36091 ft | 421 kts | 330° |
| 2026-04-28 13:42 | 39.07946 | 23.76596 | 36116 ft | 421 kts | 330° |
| 2026-04-28 13:42 | 39.13071 | 23.72937 | 36113 ft | 422 kts | 330° |
| 2026-04-28 13:43 | 39.18203 | 23.69269 | 36115 ft | 422 kts | 330° |
| 2026-04-28 13:43 | 39.23336 | 23.65608 | 36111 ft | 422 kts | 330° |
| 2026-04-28 13:44 | 39.28470 | 23.61932 | 36114 ft | 422 kts | 330° |
| 2026-04-28 13:44 | 39.33603 | 23.58246 | 36120 ft | 422 kts | 330° |
| 2026-04-28 13:45 | 39.38729 | 23.54570 | 36131 ft | 421 kts | 330° |
| 2026-04-28 13:45 | 39.43858 | 23.50877 | 36130 ft | 421 kts | 330° |
| 2026-04-28 13:46 | 39.48948 | 23.47205 | 36126 ft | 421 kts | 330° |
| 2026-04-28 13:46 | 39.54068 | 23.43505 | 36124 ft | 421 kts | 330° |
| 2026-04-28 13:47 | 39.59190 | 23.39807 | 36128 ft | 421 kts | 330° |
| 2026-04-28 13:47 | 39.64301 | 23.36092 | 36125 ft | 420 kts | 329° |
| 2026-04-28 13:48 | 39.69410 | 23.32384 | 36127 ft | 420 kts | 330° |
| 2026-04-28 13:48 | 39.74515 | 23.28676 | 36122 ft | 420 kts | 329° |
| 2026-04-28 13:49 | 39.79614 | 23.24966 | 36133 ft | 420 kts | 330° |
| 2026-04-28 13:49 | 39.84684 | 23.21276 | 36130 ft | 420 kts | 329° |
| 2026-04-28 13:50 | 39.89773 | 23.17555 | 36131 ft | 419 kts | 329° |
| 2026-04-28 13:50 | 39.94854 | 23.13823 | 36132 ft | 419 kts | 329° |
| 2026-04-28 13:51 | 39.99938 | 23.10096 | 36112 ft | 419 kts | 329° |
| 2026-04-28 13:51 | 40.05021 | 23.06360 | 36130 ft | 419 kts | 329° |
| 2026-04-28 13:52 | 40.10098 | 23.02620 | 36125 ft | 419 kts | 329° |
| 2026-04-28 13:52 | 40.15171 | 22.98881 | 36128 ft | 418 kts | 329° |
| 2026-04-28 13:53 | 40.20205 | 22.95164 | 36127 ft | 418 kts | 329° |
| 2026-04-28 13:53 | 40.25272 | 22.91419 | 36123 ft | 418 kts | 329° |
| 2026-04-28 13:54 | 40.30334 | 22.87662 | 36127 ft | 417 kts | 329° |
| 2026-04-28 13:54 | 40.35379 | 22.83903 | 36123 ft | 417 kts | 329° |
| 2026-04-28 13:55 | 40.40392 | 22.80176 | 36129 ft | 416 kts | 329° |
| 2026-04-28 13:55 | 40.45430 | 22.76422 | 36121 ft | 416 kts | 329° |
| 2026-04-28 13:56 | 40.50463 | 22.72665 | 36118 ft | 416 kts | 329° |
| 2026-04-28 13:56 | 40.55493 | 22.68909 | 36115 ft | 416 kts | 329° |
| 2026-04-28 13:57 | 40.60525 | 22.65148 | 36104 ft | 416 kts | 329° |
| 2026-04-28 13:57 | 40.65557 | 22.61371 | 36100 ft | 415 kts | 329° |
| 2026-04-28 13:58 | 40.70574 | 22.57591 | 36094 ft | 415 kts | 329° |
| 2026-04-28 13:58 | 40.75572 | 22.53827 | 36098 ft | 416 kts | 329° |
| 2026-04-28 13:59 | 40.80610 | 22.50037 | 36097 ft | 416 kts | 329° |
| 2026-04-28 13:59 | 40.85625 | 22.46238 | 36097 ft | 415 kts | 329° |
| 2026-04-28 14:00 | 40.90636 | 22.42433 | 36088 ft | 415 kts | 328° |
| 2026-04-28 14:00 | 40.95654 | 22.38632 | 36081 ft | 415 kts | 329° |
| 2026-04-28 14:01 | 41.00635 | 22.34860 | 36080 ft | 414 kts | 328° |
| 2026-04-28 14:01 | 41.05648 | 22.31048 | 36080 ft | 415 kts | 328° |
| 2026-04-28 14:02 | 41.10660 | 22.27225 | 36082 ft | 415 kts | 328° |
| 2026-04-28 14:02 | 41.15668 | 22.23402 | 36078 ft | 415 kts | 328° |
| 2026-04-28 14:03 | 41.20671 | 22.19578 | 36080 ft | 415 kts | 328° |
| 2026-04-28 14:03 | 41.25638 | 22.15776 | 36076 ft | 415 kts | 328° |
| 2026-04-28 14:04 | 41.30640 | 22.11931 | 36067 ft | 415 kts | 328° |
| 2026-04-28 14:04 | 41.35642 | 22.08088 | 36058 ft | 415 kts | 328° |
| 2026-04-28 14:05 | 41.40648 | 22.04239 | 36057 ft | 415 kts | 328° |
| 2026-04-28 14:05 | 41.45648 | 22.00375 | 36052 ft | 415 kts | 328° |
| 2026-04-28 14:06 | 41.50658 | 21.96498 | 36067 ft | 415 kts | 328° |
| 2026-04-28 14:06 | 41.55648 | 21.92632 | 36059 ft | 414 kts | 328° |
| 2026-04-28 14:07 | 41.60638 | 21.88756 | 36057 ft | 414 kts | 328° |
| 2026-04-28 14:07 | 41.62282 | 21.87477 | 36056 ft | 414 kts | 328° |
| 2026-04-28 14:08 | 41.89864 | 21.65937 | 36032 ft | 413 kts | 327° |
| 2026-04-28 14:08 | 41.98142 | 21.58252 | 36038 ft | 410 kts | 320° |
| 2026-04-28 14:09 | 42.02627 | 21.53589 | 36069 ft | 410 kts | 321° |
| 2026-04-28 14:09 | 42.07149 | 21.48904 | 36070 ft | 410 kts | 321° |
| 2026-04-28 14:10 | 42.11662 | 21.44212 | 36076 ft | 410 kts | 320° |
| 2026-04-28 14:10 | 42.16098 | 21.39380 | 36078 ft | 408 kts | 314° |
| 2026-04-28 14:11 | 42.19814 | 21.33613 | 36083 ft | 408 kts | 309° |
| 2026-04-28 14:11 | 42.23466 | 21.27816 | 36081 ft | 407 kts | 309° |
| 2026-04-28 14:12 | 42.27139 | 21.21985 | 36081 ft | 407 kts | 309° |
| 2026-04-28 14:12 | 42.30801 | 21.16162 | 36077 ft | 407 kts | 309° |
| 2026-04-28 14:13 | 42.34458 | 21.10338 | 36073 ft | 406 kts | 309° |
| 2026-04-28 14:13 | 42.38112 | 21.04496 | 36063 ft | 406 kts | 309° |
| 2026-04-28 14:14 | 42.41755 | 20.98653 | 36057 ft | 406 kts | 309° |
| 2026-04-28 14:14 | 42.45392 | 20.92803 | 36054 ft | 406 kts | 309° |
| 2026-04-28 14:15 | 42.49014 | 20.86986 | 36072 ft | 406 kts | 309° |
| 2026-04-28 14:15 | 42.52656 | 20.81135 | 36077 ft | 405 kts | 309° |
| 2026-04-28 14:16 | 42.56285 | 20.75285 | 36074 ft | 404 kts | 309° |
| 2026-04-28 14:16 | 42.59896 | 20.69445 | 36073 ft | 404 kts | 309° |
| 2026-04-28 14:17 | 42.63485 | 20.63623 | 36075 ft | 404 kts | 309° |
| 2026-04-28 14:17 | 42.67084 | 20.57767 | 36074 ft | 404 kts | 309° |
| 2026-04-28 14:18 | 42.70683 | 20.51905 | 36071 ft | 404 kts | 309° |
| 2026-04-28 14:18 | 42.74272 | 20.46066 | 36062 ft | 404 kts | 309° |
| 2026-04-28 14:19 | 42.77869 | 20.40190 | 36075 ft | 404 kts | 309° |
| 2026-04-28 14:19 | 42.81462 | 20.34291 | 36070 ft | 403 kts | 309° |
| 2026-04-28 14:20 | 42.85278 | 20.28674 | 36070 ft | 405 kts | 315° |
| 2026-04-28 14:20 | 42.89381 | 20.23398 | 36065 ft | 405 kts | 315° |
| 2026-04-28 14:21 | 42.93457 | 20.18143 | 36064 ft | 405 kts | 315° |
| 2026-04-28 14:21 | 42.97545 | 20.12852 | 36053 ft | 405 kts | 315° |
| 2026-04-28 14:22 | 43.01634 | 20.07533 | 36055 ft | 405 kts | 315° |
| 2026-04-28 14:22 | 43.05720 | 20.02218 | 36055 ft | 405 kts | 315° |
| 2026-04-28 14:23 | 43.09808 | 19.96884 | 36056 ft | 405 kts | 315° |
| 2026-04-28 14:23 | 43.13855 | 19.91577 | 36056 ft | 405 kts | 315° |
| 2026-04-28 14:24 | 43.17927 | 19.86230 | 36057 ft | 406 kts | 315° |
| 2026-04-28 14:24 | 43.22003 | 19.80881 | 36053 ft | 405 kts | 315° |
| 2026-04-28 14:25 | 43.25392 | 19.76432 | 36057 ft | 405 kts | 314° |
| 2026-04-28 14:25 | 43.30031 | 19.70310 | 36064 ft | 405 kts | 314° |
| 2026-04-28 14:26 | 43.34097 | 19.64946 | 36065 ft | 405 kts | 314° |
| 2026-04-28 14:26 | 43.38154 | 19.59563 | 36069 ft | 405 kts | 314° |
| 2026-04-28 14:27 | 43.42192 | 19.54213 | 36067 ft | 405 kts | 314° |
| 2026-04-28 14:27 | 43.46249 | 19.48842 | 36067 ft | 405 kts | 314° |
| 2026-04-28 14:28 | 43.50316 | 19.43461 | 36068 ft | 405 kts | 314° |
| 2026-04-28 14:28 | 43.54356 | 19.38061 | 36076 ft | 404 kts | 314° |
| 2026-04-28 14:29 | 43.58393 | 19.32648 | 36076 ft | 404 kts | 314° |
| 2026-04-28 14:29 | 43.62411 | 19.27298 | 36065 ft | 404 kts | 314° |
| 2026-04-28 14:30 | 43.66445 | 19.21894 | 36068 ft | 403 kts | 314° |
| 2026-04-28 14:30 | 43.70460 | 19.16484 | 36063 ft | 403 kts | 314° |
| 2026-04-28 14:31 | 43.74482 | 19.11068 | 36067 ft | 404 kts | 314° |
| 2026-04-28 14:31 | 43.78508 | 19.05633 | 36094 ft | 404 kts | 314° |
| 2026-04-28 14:32 | 43.82527 | 19.00194 | 36085 ft | 403 kts | 314° |
| 2026-04-28 14:32 | 43.86533 | 18.94761 | 36082 ft | 403 kts | 314° |
| 2026-04-28 14:33 | 43.90543 | 18.89317 | 36084 ft | 403 kts | 314° |
| 2026-04-28 14:33 | 43.96416 | 18.81329 | 36084 ft | 403 kts | 314° |
| 2026-04-28 14:34 | 44.20334 | 18.48551 | 36098 ft | 401 kts | 313° |
| 2026-04-28 14:35 | 44.36074 | 18.26789 | 36090 ft | 401 kts | 313° |
| 2026-04-28 14:35 | 44.51870 | 18.04734 | 36096 ft | 401 kts | 313° |
| 2026-04-28 14:36 | 44.67620 | 17.82586 | 36096 ft | 400 kts | 312° |
| 2026-04-28 14:36 | 44.83315 | 17.60323 | 36104 ft | 400 kts | 312° |
| 2026-04-28 14:37 | 44.98929 | 17.37962 | 36081 ft | 399 kts | 312° |
| 2026-04-28 14:37 | 45.14492 | 17.15538 | 36110 ft | 398 kts | 311° |
| 2026-04-28 14:38 | 45.29971 | 16.93053 | 36096 ft | 398 kts | 311° |
| 2026-04-28 14:38 | 45.45268 | 16.70619 | 36110 ft | 396 kts | 311° |
| 2026-04-28 14:39 | 45.60591 | 16.47980 | 36095 ft | 396 kts | 311° |
| 2026-04-28 14:39 | 45.75857 | 16.25224 | 36094 ft | 396 kts | 311° |
| 2026-04-28 14:40 | 45.86046 | 16.09920 | 36122 ft | 396 kts | 310° |
| 2026-04-28 14:40 | 45.89842 | 16.04183 | 36124 ft | 396 kts | 310° |
| 2026-04-28 14:41 | 45.93636 | 15.98450 | 36115 ft | 396 kts | 310° |
| 2026-04-28 14:41 | 45.97430 | 15.92710 | 36102 ft | 396 kts | 310° |
| 2026-04-28 14:42 | 46.01227 | 15.86949 | 36107 ft | 396 kts | 310° |
| 2026-04-28 14:42 | 46.04995 | 15.81226 | 36106 ft | 396 kts | 310° |
| 2026-04-28 14:43 | 46.08792 | 15.75454 | 36130 ft | 396 kts | 310° |
| 2026-04-28 14:43 | 46.12569 | 15.69674 | 36126 ft | 395 kts | 310° |
| 2026-04-28 14:44 | 46.16333 | 15.63899 | 36124 ft | 395 kts | 310° |